Terminal Aerodrome Forecast
Issued by NWS Sioux Falls, SD

Home | Current Version | Previous Version | Graphics & Text | Print | Product List | Glossary On
Versions: 1 2 3 4 5 6 7 8 9 10 11 12 13 14 15 16 17 18
000
FTUS43 KFSD 192159 AAB
TAFFSD
TAF AMD
KFSD 192159Z 1922/2018 17011KT 1/2SM FG OVC003
     FM200500 15008KT 1/2SM -DZ FG OVC002
     FM201600 15007KT 3/4SM -DZ BR OVC003=

USA.gov is the U.S. government's official web portal to all federal, state and local government web resources and services.